createdAt,value
2018-09-17T00:00:32.997Z,1017.44
2018-09-17T00:01:33.008Z,1017.48
2018-09-17T00:02:32.980Z,1017.48
2018-09-17T00:03:32.964Z,1017.48
2018-09-17T00:04:32.955Z,1017.47
2018-09-17T00:05:32.978Z,1017.42
2018-09-17T00:08:34.059Z,1017.34
2018-09-17T00:09:32.899Z,1017.33
2018-09-17T00:10:32.903Z,1017.31
2018-09-17T00:11:32.916Z,1017.33
2018-09-17T00:12:32.881Z,1017.34
2018-09-17T00:14:33.999Z,1017.36
2018-09-17T00:16:34.012Z,1017.33
2018-09-17T00:19:33.979Z,1017.31
2018-09-17T00:21:33.947Z,1017.33
2018-09-17T00:24:33.899Z,1017.35
2018-09-17T00:29:33.867Z,1017.40
2018-09-17T00:31:33.856Z,1017.34
2018-09-17T00:32:32.639Z,1017.33
2018-09-17T00:35:33.756Z,1017.32
2018-09-17T00:36:32.628Z,1017.40
2018-09-17T00:37:32.585Z,1017.36
2018-09-17T00:38:53.573Z,1017.40
2018-09-17T00:42:33.726Z,1017.35
2018-09-17T00:45:33.644Z,1017.24
2018-09-17T00:46:32.486Z,1017.23
2018-09-17T00:48:34.114Z,1017.24
2018-09-17T00:49:32.440Z,1017.21
2018-09-17T00:52:33.617Z,1017.24
2018-09-17T00:53:32.400Z,1017.19
2018-09-17T00:54:32.391Z,1017.21
2018-09-17T00:55:32.375Z,1017.17
2018-09-17T00:56:32.363Z,1017.17
2018-09-17T00:57:32.376Z,1017.21
2018-09-17T00:59:33.506Z,1017.18
2018-09-17T01:02:34.108Z,1017.08
2018-09-17T01:03:32.290Z,1017.07
2018-09-17T01:04:32.280Z,1017.09
2018-09-17T01:07:33.452Z,1017.03
2018-09-17T01:08:32.229Z,1017.11
2018-09-17T01:10:54.217Z,1017.08
2018-09-17T01:11:32.203Z,1017.13
2018-09-17T01:12:32.184Z,1017.11
2018-09-17T01:13:32.199Z,1017.12
2018-09-17T01:14:53.169Z,1017.06
2018-09-17T01:15:32.159Z,1017.00
2018-09-17T01:16:32.138Z,1017.00
2018-09-17T01:17:32.128Z,1016.97
2018-09-17T01:18:32.148Z,1016.99
2018-09-17T01:19:32.114Z,1016.94
2018-09-17T01:21:40.999Z,1016.91
2018-09-17T01:23:41.999Z,1016.85
2018-09-17T01:24:40.979Z,1016.83
2018-09-17T01:25:40.950Z,1016.83
2018-09-17T01:26:40.946Z,1016.85
2018-09-17T01:27:40.931Z,1016.84
2018-09-17T01:28:40.939Z,1016.91
2018-09-17T01:29:40.932Z,1016.89
2018-09-17T01:30:40.921Z,1016.83
2018-09-17T01:31:40.893Z,1016.85
2018-09-17T01:32:40.873Z,1016.85
2018-09-17T01:33:40.893Z,1016.84
2018-09-17T01:34:40.857Z,1016.79
2018-09-17T01:35:40.848Z,1016.77
2018-09-17T01:37:41.990Z,1016.74
2018-09-17T01:38:40.826Z,1016.76
2018-09-17T01:39:40.800Z,1016.70
2018-09-17T01:40:40.791Z,1016.72
2018-09-17T01:41:40.775Z,1016.74
2018-09-17T01:43:41.908Z,1016.70
2018-09-17T01:44:40.749Z,1016.73
2018-09-17T01:45:40.726Z,1016.73
2018-09-17T01:46:40.797Z,1016.70
2018-09-17T01:47:40.706Z,1016.68
2018-09-17T01:48:40.701Z,1016.67
2018-09-17T01:49:40.750Z,1016.60
2018-09-17T01:50:40.669Z,1016.62
2018-09-17T01:51:40.663Z,1016.60
2018-09-17T01:52:40.667Z,1016.67
2018-09-17T01:53:40.660Z,1016.68
2018-09-17T01:54:40.643Z,1016.71
2018-09-17T01:55:40.651Z,1016.67
2018-09-17T01:56:40.604Z,1016.67
2018-09-17T01:57:40.593Z,1016.67
2018-09-17T01:58:40.580Z,1016.68
2018-09-17T01:59:40.589Z,1016.69
2018-09-17T02:00:40.572Z,1016.69
2018-09-17T02:01:40.545Z,1016.73
2018-09-17T02:02:40.544Z,1016.77
2018-09-17T02:03:40.538Z,1016.76
2018-09-17T02:04:40.530Z,1016.80
2018-09-17T02:05:40.508Z,1016.87
2018-09-17T02:06:40.494Z,1016.89
2018-09-17T02:07:40.487Z,1016.88
2018-09-17T02:08:40.491Z,1016.95
2018-09-17T02:09:40.489Z,1016.95
2018-09-17T02:10:40.450Z,1017.00
2018-09-17T02:11:40.448Z,1017.00
2018-09-17T02:12:40.429Z,1017.09
2018-09-17T02:13:40.418Z,1017.08
2018-09-17T02:14:40.427Z,1017.08
2018-09-17T02:15:40.410Z,1017.14
2018-09-17T02:16:40.393Z,1017.10
2018-09-17T02:17:40.376Z,1017.07
2018-09-17T02:18:40.361Z,1017.10
2018-09-17T02:19:40.378Z,1017.12
2018-09-17T02:20:40.358Z,1017.17
2018-09-17T02:21:40.322Z,1017.16
2018-09-17T02:22:40.315Z,1017.13
2018-09-17T02:23:40.301Z,1017.13
2018-09-17T02:24:40.288Z,1017.10
2018-09-17T02:25:40.299Z,1017.09
2018-09-17T02:26:40.295Z,1017.04
2018-09-17T02:27:40.262Z,1017.08
2018-09-17T02:28:40.246Z,1017.01
2018-09-17T02:29:40.268Z,1017.04
2018-09-17T02:30:40.263Z,1017.13
2018-09-17T02:31:40.213Z,1017.11
2018-09-17T02:32:40.198Z,1017.12
2018-09-17T02:33:40.194Z,1017.14
2018-09-17T02:34:40.194Z,1017.12
2018-09-17T02:35:40.187Z,1017.14
2018-09-17T02:36:40.167Z,1017.11
2018-09-17T02:38:41.273Z,1017.02
2018-09-17T02:39:40.123Z,1016.99
2018-09-17T02:40:40.138Z,1016.94
2018-09-17T02:41:40.107Z,1017.00
2018-09-17T02:42:40.089Z,1017.01
2018-09-17T02:43:40.079Z,1016.95
2018-09-17T02:44:40.077Z,1016.98
2018-09-17T02:45:40.075Z,1016.96
2018-09-17T02:46:40.046Z,1016.96
2018-09-17T02:47:40.042Z,1017.01
2018-09-17T02:48:40.042Z,1017.00
2018-09-17T02:49:40.022Z,1016.98
2018-09-17T02:50:40.013Z,1016.99
2018-09-17T02:51:39.990Z,1017.06
2018-09-17T02:52:39.977Z,1017.07
2018-09-17T02:53:40.052Z,1017.06
2018-09-17T02:54:40.010Z,1017.09
2018-09-17T02:55:39.962Z,1017.10
2018-09-17T02:56:39.933Z,1017.13
2018-09-17T02:57:39.924Z,1017.13
2018-09-17T02:58:39.912Z,1017.15
2018-09-17T02:59:39.906Z,1017.12
2018-09-17T03:00:39.903Z,1017.20
2018-09-17T03:01:39.949Z,1017.22
2018-09-17T03:02:39.868Z,1017.25
2018-09-17T03:03:39.867Z,1017.31
2018-09-17T03:04:39.844Z,1017.29
2018-09-17T03:05:39.835Z,1017.31
2018-09-17T03:06:39.832Z,1017.32
2018-09-17T03:07:39.811Z,1017.33
2018-09-17T03:08:39.799Z,1017.30
2018-09-17T03:09:39.789Z,1017.34
2018-09-17T03:10:39.788Z,1017.29
2018-09-17T03:11:39.797Z,1017.26
2018-09-17T03:12:39.776Z,1017.27
2018-09-17T03:13:39.743Z,1017.29
2018-09-17T03:14:39.726Z,1017.27
2018-09-17T03:15:39.726Z,1017.25
2018-09-17T03:16:39.732Z,1017.26
2018-09-17T03:17:39.694Z,1017.30
2018-09-17T03:18:39.689Z,1017.28
2018-09-17T03:19:39.670Z,1017.27
2018-09-17T03:20:39.661Z,1017.25
2018-09-17T03:21:39.674Z,1017.30
2018-09-17T03:22:39.671Z,1017.28
2018-09-17T03:23:39.626Z,1017.25
2018-09-17T03:24:39.733Z,1017.24
2018-09-17T03:25:39.605Z,1017.27
2018-09-17T03:26:39.613Z,1017.23
2018-09-17T03:27:39.613Z,1017.17
2018-09-17T03:28:39.575Z,1017.16
2018-09-17T03:29:39.566Z,1017.18
2018-09-17T03:30:39.551Z,1017.20
2018-09-17T03:31:39.540Z,1017.21
2018-09-17T03:32:39.561Z,1017.24
2018-09-17T03:33:39.526Z,1017.23
2018-09-17T03:34:39.509Z,1017.22
2018-09-17T03:35:39.511Z,1017.22
2018-09-17T03:36:39.482Z,1017.24
2018-09-17T03:37:39.487Z,1017.24
2018-09-17T03:38:39.456Z,1017.18
2018-09-17T03:39:39.458Z,1017.11
2018-09-17T03:40:39.440Z,1017.09
2018-09-17T03:41:39.431Z,1017.12
2018-09-17T03:42:39.428Z,1017.06
2018-09-17T03:43:39.415Z,1017.06
2018-09-17T03:44:39.393Z,1017.03
2018-09-17T03:45:39.402Z,1017.01
2018-09-17T03:46:39.479Z,1016.99
2018-09-17T03:47:39.378Z,1016.98
2018-09-17T03:49:40.512Z,1016.97
2018-09-17T03:50:39.325Z,1016.96
2018-09-17T03:51:39.330Z,1016.99
2018-09-17T03:52:39.315Z,1017.00
2018-09-17T03:53:39.294Z,1017.03
2018-09-17T03:54:39.291Z,1017.04
2018-09-17T03:55:39.271Z,1017.05
2018-09-17T03:56:39.255Z,1017.09
2018-09-17T03:57:39.268Z,1017.04
2018-09-17T03:58:39.251Z,1017.09
2018-09-17T03:59:39.224Z,1017.07
2018-09-17T04:00:39.214Z,1017.03
2018-09-17T04:01:39.202Z,1017.08
2018-09-17T04:02:39.215Z,1017.05
2018-09-17T04:03:39.175Z,1017.01
2018-09-17T04:04:39.166Z,1016.96
2018-09-17T04:05:39.158Z,1017.07
2018-09-17T04:06:39.151Z,1017.06
2018-09-17T04:07:39.153Z,1017.01
2018-09-17T04:08:39.162Z,1016.99
2018-09-17T04:09:39.116Z,1017.00
2018-09-17T04:10:39.098Z,1016.98
2018-09-17T04:11:39.098Z,1016.95
2018-09-17T04:12:39.081Z,1016.99
2018-09-17T04:13:39.097Z,1016.95
2018-09-17T04:15:39.047Z,1017.01
2018-09-17T04:16:39.046Z,1017.03
2018-09-17T04:17:39.021Z,1017.08
2018-09-17T04:18:39.077Z,1017.06
2018-09-17T04:19:39.000Z,1017.01
2018-09-17T04:20:38.993Z,1016.99
2018-09-17T04:21:38.994Z,1017.01
2018-09-17T04:22:38.963Z,1017.03
2018-09-17T04:23:38.950Z,1017.03
2018-09-17T04:24:38.958Z,1016.94
2018-09-17T04:25:38.939Z,1016.98
2018-09-17T04:26:38.922Z,1016.98
2018-09-17T04:27:38.920Z,1016.98
2018-09-17T04:28:38.902Z,1016.93
2018-09-17T04:29:38.898Z,1016.94
2018-09-17T04:30:38.874Z,1016.91
2018-09-17T04:31:38.920Z,1016.93
2018-09-17T04:32:38.850Z,1016.92
2018-09-17T04:33:38.854Z,1016.92
2018-09-17T04:34:38.854Z,1016.96
2018-09-17T04:35:38.813Z,1016.98
2018-09-17T04:37:39.946Z,1017.00
2018-09-17T04:38:38.804Z,1017.05
2018-09-17T04:39:38.857Z,1017.03
2018-09-17T04:40:38.757Z,1017.05
2018-09-17T04:41:38.751Z,1017.04
2018-09-17T04:42:38.738Z,1016.99
2018-09-17T04:43:38.729Z,1017.01
2018-09-17T04:44:38.752Z,1017.01
2018-09-17T04:45:38.711Z,1017.03
2018-09-17T04:46:38.703Z,1017.08
2018-09-17T04:47:38.684Z,1017.08
2018-09-17T04:48:38.667Z,1017.10
2018-09-17T04:49:38.686Z,1017.11
2018-09-17T04:50:38.649Z,1017.09
2018-09-17T04:51:38.638Z,1017.17
2018-09-17T04:52:38.636Z,1017.16
2018-09-17T04:53:38.619Z,1017.13
2018-09-17T04:54:38.639Z,1017.11
2018-09-17T04:55:38.593Z,1017.12
2018-09-17T04:56:38.580Z,1017.17
2018-09-17T04:57:38.573Z,1017.14
2018-09-17T04:58:38.555Z,1017.13
2018-09-17T04:59:38.565Z,1017.15
2018-09-17T05:00:38.541Z,1017.12
2018-09-17T05:01:38.536Z,1017.19
2018-09-17T05:02:38.510Z,1017.16
2018-09-17T05:03:38.495Z,1017.19
2018-09-17T05:04:38.509Z,1017.18
2018-09-17T05:05:38.491Z,1017.19
2018-09-17T05:06:38.484Z,1017.16
2018-09-17T05:07:38.473Z,1017.16
2018-09-17T05:08:38.453Z,1017.21
2018-09-17T05:09:38.431Z,1017.22
2018-09-17T05:10:38.436Z,1017.26
2018-09-17T05:11:38.418Z,1017.26
2018-09-17T05:12:38.402Z,1017.25
2018-09-17T05:13:38.387Z,1017.27
2018-09-17T05:14:38.380Z,1017.31
2018-09-17T05:15:38.419Z,1017.25
2018-09-17T05:16:38.381Z,1017.28
2018-09-17T05:17:38.365Z,1017.27
2018-09-17T05:18:38.329Z,1017.25
2018-09-17T05:19:38.320Z,1017.32
2018-09-17T05:20:38.337Z,1017.37
2018-09-17T05:21:38.371Z,1017.34
2018-09-17T05:22:38.284Z,1017.36
2018-09-17T05:23:38.310Z,1017.36
2018-09-17T05:24:38.266Z,1017.38
2018-09-17T05:25:38.251Z,1017.40
2018-09-17T05:26:38.275Z,1017.41
2018-09-17T05:27:38.232Z,1017.37
2018-09-17T05:28:38.233Z,1017.40
2018-09-17T05:29:38.207Z,1017.36
2018-09-17T05:30:38.213Z,1017.39
2018-09-17T05:31:38.216Z,1017.39
2018-09-17T05:32:38.171Z,1017.37
2018-09-17T05:33:38.174Z,1017.41
2018-09-17T05:34:38.153Z,1017.39
2018-09-17T05:35:38.135Z,1017.37
2018-09-17T05:36:38.157Z,1017.40
2018-09-17T05:37:38.116Z,1017.45
2018-09-17T05:38:38.113Z,1017.45
2018-09-17T05:39:38.098Z,1017.49
2018-09-17T05:40:38.094Z,1017.53
2018-09-17T05:41:38.091Z,1017.50
2018-09-17T05:42:38.085Z,1017.54
2018-09-17T05:43:38.049Z,1017.53
2018-09-17T05:44:38.038Z,1017.56
2018-09-17T05:45:38.024Z,1017.59
2018-09-17T05:46:38.010Z,1017.56
2018-09-17T05:47:38.023Z,1017.55
2018-09-17T05:48:37.988Z,1017.54
2018-09-17T05:49:37.991Z,1017.49
2018-09-17T05:50:37.983Z,1017.50
2018-09-17T05:51:37.961Z,1017.55
2018-09-17T05:52:37.980Z,1017.55
2018-09-17T05:53:37.965Z,1017.57
2018-09-17T05:54:37.934Z,1017.57
2018-09-17T05:55:37.915Z,1017.60
2018-09-17T05:56:37.902Z,1017.61
2018-09-17T05:57:37.892Z,1017.63
2018-09-17T05:58:37.903Z,1017.62
2018-09-17T05:59:37.926Z,1017.61
2018-09-17T06:00:37.860Z,1017.63
2018-09-17T06:01:37.843Z,1017.61
2018-09-17T06:02:37.852Z,1017.63
2018-09-17T06:03:37.867Z,1017.68
2018-09-17T06:04:37.804Z,1017.68
2018-09-17T06:05:37.898Z,1017.67
2018-09-17T06:06:37.823Z,1017.68
2018-09-17T06:07:37.778Z,1017.73
2018-09-17T06:08:37.784Z,1017.79
2018-09-17T06:09:37.783Z,1017.76
2018-09-17T06:10:37.735Z,1017.86
2018-09-17T06:11:37.739Z,1017.81
2018-09-17T06:12:37.720Z,1017.86
2018-09-17T06:13:37.730Z,1017.89
2018-09-17T06:14:37.762Z,1017.84
2018-09-17T06:15:37.686Z,1017.83
2018-09-17T06:16:37.679Z,1017.86
2018-09-17T06:17:37.656Z,1017.82
2018-09-17T06:18:37.672Z,1017.86
2018-09-17T06:19:37.633Z,1017.86
2018-09-17T06:20:37.621Z,1017.85
2018-09-17T06:21:37.619Z,1017.83
2018-09-17T06:22:37.605Z,1017.80
2018-09-17T06:23:37.602Z,1017.85
2018-09-17T06:24:37.575Z,1017.83
2018-09-17T06:25:37.568Z,1017.84
2018-09-17T06:26:37.588Z,1017.76
2018-09-17T06:27:37.549Z,1017.79
2018-09-17T06:28:37.629Z,1017.75
2018-09-17T06:29:37.530Z,1017.78
2018-09-17T06:30:37.510Z,1017.81
2018-09-17T06:32:38.621Z,1017.75
2018-09-17T06:33:37.476Z,1017.72
2018-09-17T06:34:37.490Z,1017.76
2018-09-17T06:35:37.494Z,1017.74
2018-09-17T06:36:37.439Z,1017.74
2018-09-17T06:37:37.467Z,1017.74
2018-09-17T06:38:37.423Z,1017.73
2018-09-17T06:39:37.431Z,1017.74
2018-09-17T06:40:37.399Z,1017.75
2018-09-17T06:41:37.423Z,1017.72
2018-09-17T06:42:37.415Z,1017.69
2018-09-17T06:43:37.364Z,1017.67
2018-09-17T06:44:37.388Z,1017.74
2018-09-17T06:45:37.347Z,1017.69
2018-09-17T06:46:37.336Z,1017.69
2018-09-17T06:47:37.317Z,1017.63
2018-09-17T06:48:37.308Z,1017.66
2018-09-17T06:49:37.314Z,1017.61
2018-09-17T06:50:37.286Z,1017.67
2018-09-17T06:51:37.287Z,1017.64
2018-09-17T06:52:37.288Z,1017.69
2018-09-17T06:53:37.301Z,1017.63
2018-09-17T06:54:37.273Z,1017.62
2018-09-17T06:55:37.231Z,1017.70
2018-09-17T06:56:37.275Z,1017.70
2018-09-17T06:57:37.212Z,1017.67
2018-09-17T06:58:37.196Z,1017.65
2018-09-17T06:59:37.199Z,1017.67
2018-09-17T07:00:37.188Z,1017.67
2018-09-17T07:01:37.172Z,1017.67
2018-09-17T07:02:37.157Z,1017.69
2018-09-17T07:03:37.144Z,1017.66
2018-09-17T07:04:37.155Z,1017.63
2018-09-17T07:05:37.134Z,1017.61
2018-09-17T07:06:37.104Z,1017.65
2018-09-17T07:07:37.100Z,1017.67
2018-09-17T07:08:37.091Z,1017.67
2018-09-17T07:09:37.073Z,1017.67
2018-09-17T07:10:37.097Z,1017.62
2018-09-17T07:11:37.050Z,1017.65
2018-09-17T07:12:37.040Z,1017.65
2018-09-17T07:13:37.026Z,1017.70
2018-09-17T07:14:37.029Z,1017.71
2018-09-17T07:15:37.055Z,1017.75
2018-09-17T07:16:36.995Z,1017.72
2018-09-17T07:17:36.988Z,1017.78
2018-09-17T07:18:36.978Z,1017.77
2018-09-17T07:19:36.979Z,1017.75
2018-09-17T07:20:36.978Z,1017.75
2018-09-17T07:21:36.969Z,1017.68
2018-09-17T07:22:36.931Z,1017.71
2018-09-17T07:23:36.915Z,1017.68
2018-09-17T07:24:36.910Z,1017.71
2018-09-17T07:25:36.937Z,1017.70
2018-09-17T07:26:36.882Z,1017.68
2018-09-17T07:27:36.869Z,1017.66
2018-09-17T07:28:36.858Z,1017.70
2018-09-17T07:29:36.861Z,1017.71
2018-09-17T07:30:36.843Z,1017.72
2018-09-17T07:31:36.854Z,1017.70
2018-09-17T07:32:36.840Z,1017.66
2018-09-17T07:33:36.825Z,1017.70
2018-09-17T07:34:36.791Z,1017.70
2018-09-17T07:35:36.779Z,1017.68
2018-09-17T07:36:36.883Z,1017.66
2018-09-17T07:37:36.756Z,1017.65
2018-09-17T07:38:36.753Z,1017.59
2018-09-17T07:39:36.734Z,1017.62
2018-09-17T07:40:36.733Z,1017.61
2018-09-17T07:41:36.752Z,1017.63
2018-09-17T07:42:36.711Z,1017.60
2018-09-17T07:43:36.690Z,1017.60
2018-09-17T07:44:36.682Z,1017.60
2018-09-17T07:45:36.678Z,1017.56
2018-09-17T07:46:36.692Z,1017.55
2018-09-17T07:47:36.659Z,1017.58
2018-09-17T07:48:36.650Z,1017.57
2018-09-17T07:49:36.648Z,1017.58
2018-09-17T07:50:36.616Z,1017.54
2018-09-17T07:51:36.641Z,1017.54
2018-09-17T07:52:36.590Z,1017.56
2018-09-17T07:53:36.611Z,1017.56
2018-09-17T07:54:36.570Z,1017.48
2018-09-17T07:55:36.555Z,1017.46
2018-09-17T07:56:36.631Z,1017.55
2018-09-17T07:57:36.537Z,1017.50
2018-09-17T07:58:36.523Z,1017.48
2018-09-17T07:59:36.524Z,1017.49
2018-09-17T08:00:36.502Z,1017.48
2018-09-17T08:01:36.510Z,1017.50
2018-09-17T08:02:36.498Z,1017.61
2018-09-17T08:03:36.464Z,1017.65
2018-09-17T08:04:36.463Z,1017.72
2018-09-17T08:05:36.487Z,1017.68
2018-09-17T08:06:36.477Z,1017.75
2018-09-17T08:07:36.422Z,1017.72
2018-09-17T08:08:36.411Z,1017.69
2018-09-17T08:09:36.398Z,1017.72
2018-09-17T08:10:36.391Z,1017.65
2018-09-17T08:11:36.383Z,1017.69
2018-09-17T08:12:36.389Z,1017.69
2018-09-17T08:13:36.360Z,1017.70
2018-09-17T08:14:36.361Z,1017.64
2018-09-17T08:15:36.333Z,1017.68
2018-09-17T08:16:36.341Z,1017.76
2018-09-17T08:17:36.356Z,1017.77
2018-09-17T08:18:36.300Z,1017.82
2018-09-17T08:19:36.300Z,1017.93
2018-09-17T08:20:36.282Z,1017.89
2018-09-17T08:21:36.270Z,1017.86
2018-09-17T08:22:36.293Z,1017.90
2018-09-17T08:23:36.255Z,1017.87
2018-09-17T08:24:36.293Z,1017.82
2018-09-17T08:25:36.346Z,1017.84
2018-09-17T08:26:36.215Z,1017.81
2018-09-17T08:27:36.244Z,1017.79
2018-09-17T08:28:36.208Z,1017.84
2018-09-17T08:29:36.181Z,1017.83
2018-09-17T08:30:36.165Z,1017.78
2018-09-17T08:31:36.168Z,1017.79
2018-09-17T08:32:36.170Z,1017.85
2018-09-17T08:33:36.164Z,1017.84
2018-09-17T08:34:36.121Z,1017.78
2018-09-17T08:35:36.142Z,1017.74
2018-09-17T08:36:36.104Z,1017.70
2018-09-17T08:37:36.095Z,1017.77
2018-09-17T08:38:36.141Z,1017.83
2018-09-17T08:39:36.084Z,1017.76
2018-09-17T08:40:36.059Z,1017.75
2018-09-17T08:41:36.064Z,1017.74
2018-09-17T08:42:36.049Z,1017.72
2018-09-17T08:43:36.049Z,1017.67
2018-09-17T08:44:36.023Z,1017.71
2018-09-17T08:45:36.056Z,1017.72
2018-09-17T08:46:36.035Z,1017.74
2018-09-17T08:47:35.986Z,1017.78
2018-09-17T08:48:35.994Z,1017.72
2018-09-17T08:49:35.959Z,1017.74
2018-09-17T08:50:35.956Z,1017.71
2018-09-17T08:51:35.944Z,1017.73
2018-09-17T08:52:35.944Z,1017.75
2018-09-17T08:53:35.945Z,1017.71
2018-09-17T08:54:35.911Z,1017.70
2018-09-17T08:55:35.925Z,1017.72
2018-09-17T08:56:35.885Z,1017.72
2018-09-17T08:57:35.873Z,1017.65
2018-09-17T08:58:35.879Z,1017.62
2018-09-17T08:59:35.850Z,1017.61
2018-09-17T09:00:35.873Z,1017.60
2018-09-17T09:01:35.839Z,1017.61
2018-09-17T09:02:35.828Z,1017.55
2018-09-17T09:03:35.834Z,1017.57
2018-09-17T09:04:35.817Z,1017.58
2018-09-17T09:05:35.784Z,1017.57
2018-09-17T09:06:35.788Z,1017.60
2018-09-17T09:07:35.770Z,1017.62
2018-09-17T09:08:35.779Z,1017.68
2018-09-17T09:09:35.769Z,1017.68
2018-09-17T09:10:35.737Z,1017.63
2018-09-17T09:11:35.723Z,1017.63
2018-09-17T09:12:35.713Z,1017.74
2018-09-17T09:13:35.760Z,1017.76
2018-09-17T09:14:35.702Z,1017.68
2018-09-17T09:15:35.679Z,1017.73
2018-09-17T09:16:35.676Z,1017.72
2018-09-17T09:17:35.658Z,1017.79
2018-09-17T09:18:35.663Z,1017.75
2018-09-17T09:19:35.741Z,1017.81
2018-09-17T09:20:35.655Z,1017.82
2018-09-17T09:21:35.618Z,1017.73
2018-09-17T09:22:35.608Z,1017.74
2018-09-17T09:23:35.591Z,1017.72
2018-09-17T09:24:35.595Z,1017.79
2018-09-17T09:25:35.589Z,1017.73
2018-09-17T09:26:35.567Z,1017.71
2018-09-17T09:27:35.560Z,1017.64
2018-09-17T09:28:35.563Z,1017.57
2018-09-17T09:29:35.540Z,1017.57
2018-09-17T09:30:35.531Z,1017.59
2018-09-17T09:31:35.516Z,1017.62
2018-09-17T09:32:35.503Z,1017.62
2018-09-17T09:33:35.487Z,1017.65
2018-09-17T09:34:35.504Z,1017.62
2018-09-17T09:35:35.498Z,1017.61
2018-09-17T09:36:35.460Z,1017.60
2018-09-17T09:37:35.443Z,1017.58
2018-09-17T09:38:35.437Z,1017.60
2018-09-17T09:39:35.424Z,1017.53
2018-09-17T09:40:35.428Z,1017.51
2018-09-17T09:41:35.408Z,1017.52
2018-09-17T09:42:35.393Z,1017.50
2018-09-17T09:43:35.380Z,1017.52
2018-09-17T09:44:35.413Z,1017.50
2018-09-17T09:45:35.375Z,1017.53
2018-09-17T09:46:35.344Z,1017.52
2018-09-17T09:47:35.342Z,1017.48
2018-09-17T09:48:35.393Z,1017.50
2018-09-17T09:49:35.317Z,1017.53
2018-09-17T09:50:35.329Z,1017.50
2018-09-17T09:51:35.299Z,1017.44
2018-09-17T09:52:35.321Z,1017.42
2018-09-17T09:53:35.282Z,1017.47
2018-09-17T09:54:35.264Z,1017.45
2018-09-17T09:55:35.246Z,1017.51
2018-09-17T09:56:35.266Z,1017.42
2018-09-17T09:57:35.245Z,1017.35
2018-09-17T09:58:35.235Z,1017.37
2018-09-17T09:59:35.209Z,1017.43
2018-09-17T10:00:35.208Z,1017.42
2018-09-17T10:01:35.283Z,1017.44
2018-09-17T10:02:35.181Z,1017.40
2018-09-17T10:03:35.165Z,1017.37
2018-09-17T10:04:35.229Z,1017.35
2018-09-17T10:05:35.141Z,1017.39
2018-09-17T10:06:35.412Z,1017.41
2018-09-17T10:07:35.116Z,1017.42
2018-09-17T10:08:35.112Z,1017.38
2018-09-17T10:09:35.096Z,1017.37
2018-09-17T10:10:35.101Z,1017.33
2018-09-17T10:11:35.137Z,1017.36
2018-09-17T10:12:35.097Z,1017.31
2018-09-17T10:13:35.066Z,1017.34
2018-09-17T10:14:35.061Z,1017.38
2018-09-17T10:15:35.034Z,1017.37
2018-09-17T10:16:35.019Z,1017.33
2018-09-17T10:17:35.027Z,1017.29
2018-09-17T10:18:35.004Z,1017.29
2018-09-17T10:19:34.995Z,1017.33
2018-09-17T10:20:34.978Z,1017.33
2018-09-17T10:21:34.978Z,1017.34
2018-09-17T10:22:34.979Z,1017.31
2018-09-17T10:23:34.956Z,1017.30
2018-09-17T10:24:34.942Z,1017.25
2018-09-17T10:25:34.934Z,1017.27
2018-09-17T10:26:34.908Z,1017.25
2018-09-17T10:27:34.954Z,1017.24
2018-09-17T10:28:34.888Z,1017.24
2018-09-17T10:29:34.879Z,1017.24
2018-09-17T10:30:34.867Z,1017.19
2018-09-17T10:31:34.853Z,1017.16
2018-09-17T10:32:34.893Z,1017.15
2018-09-17T10:33:34.838Z,1017.13
2018-09-17T10:34:34.825Z,1017.12
2018-09-17T10:35:34.812Z,1017.12
2018-09-17T10:36:34.810Z,1017.19
2018-09-17T10:37:34.834Z,1017.14
2018-09-17T10:38:34.789Z,1017.14
2018-09-17T10:39:34.817Z,1017.12
2018-09-17T10:40:34.783Z,1017.13
2018-09-17T10:41:34.754Z,1017.11
2018-09-17T10:42:34.793Z,1017.10
2018-09-17T10:43:34.870Z,1017.11
2018-09-17T10:44:34.907Z,1017.09
2018-09-17T10:45:34.709Z,1017.08
2018-09-17T10:46:34.712Z,1017.10
2018-09-17T10:47:34.712Z,1017.09
2018-09-17T10:48:34.777Z,1017.11
2018-09-17T10:49:34.709Z,1017.07
2018-09-17T10:50:34.680Z,1017.01
2018-09-17T10:51:34.670Z,1017.03
2018-09-17T10:52:34.637Z,1017.00
2018-09-17T10:53:34.657Z,1017.02
2018-09-17T10:54:34.624Z,1017.04
2018-09-17T10:55:34.611Z,1017.00
2018-09-17T10:56:34.603Z,1017.00
2018-09-17T10:57:34.619Z,1017.01
2018-09-17T10:58:34.597Z,1016.95
2018-09-17T10:59:34.577Z,1016.97
2018-09-17T11:00:34.734Z,1016.96
2018-09-17T11:01:34.543Z,1016.96
2018-09-17T11:02:34.967Z,1016.93
2018-09-17T11:03:34.545Z,1016.91
2018-09-17T11:04:34.512Z,1016.92
2018-09-17T11:05:34.518Z,1016.95
2018-09-17T11:06:34.487Z,1016.91
2018-09-17T11:07:34.489Z,1016.87
2018-09-17T11:08:34.502Z,1016.89
2018-09-17T11:09:34.466Z,1016.90
2018-09-17T11:10:34.469Z,1016.87
2018-09-17T11:11:34.447Z,1016.87
2018-09-17T11:12:34.425Z,1016.89
2018-09-17T11:13:34.451Z,1016.87
2018-09-17T11:14:34.405Z,1016.88
2018-09-17T11:15:34.398Z,1016.86
2018-09-17T11:16:34.386Z,1016.88
2018-09-17T11:17:34.434Z,1016.87
2018-09-17T11:18:34.358Z,1016.88
2018-09-17T11:19:34.380Z,1016.84
2018-09-17T11:20:34.376Z,1016.83
2018-09-17T11:21:34.343Z,1016.79
2018-09-17T11:22:34.323Z,1016.83
2018-09-17T11:23:34.321Z,1016.85
2018-09-17T11:24:34.325Z,1016.82
2018-09-17T11:25:34.285Z,1016.80
2018-09-17T11:26:34.284Z,1016.82
2018-09-17T11:27:34.293Z,1016.84
2018-09-17T11:28:34.258Z,1016.78
2018-09-17T11:29:34.271Z,1016.74
2018-09-17T11:30:34.241Z,1016.71
2018-09-17T11:31:34.269Z,1016.68
2018-09-17T11:32:34.224Z,1016.68
2018-09-17T11:33:34.237Z,1016.67
2018-09-17T11:34:34.247Z,1016.63
2018-09-17T11:35:34.176Z,1016.60
2018-09-17T11:36:34.177Z,1016.72
2018-09-17T11:37:34.159Z,1016.66
2018-09-17T11:38:34.166Z,1016.65
2018-09-17T11:39:34.167Z,1016.62
2018-09-17T11:40:34.121Z,1016.62
2018-09-17T11:41:34.122Z,1016.61
2018-09-17T11:42:34.113Z,1016.61
2018-09-17T11:43:34.129Z,1016.61
2018-09-17T11:47:06.988Z,1016.56
2018-09-17T11:47:44.913Z,1016.52
2018-09-17T11:48:44.892Z,1016.54
2018-09-17T11:49:44.903Z,1016.56
2018-09-17T11:50:44.873Z,1016.53
2018-09-17T11:51:44.857Z,1016.46
2018-09-17T11:52:44.946Z,1016.42
2018-09-17T11:53:44.829Z,1016.43
2018-09-17T11:54:44.823Z,1016.43
2018-09-17T11:55:44.827Z,1016.43
2018-09-17T11:56:44.810Z,1016.46
2018-09-17T11:57:44.790Z,1016.48
2018-09-17T11:58:44.784Z,1016.46
2018-09-17T11:59:44.765Z,1016.43
2018-09-17T12:00:44.802Z,1016.41
2018-09-17T12:01:44.821Z,1016.42
2018-09-17T12:02:44.737Z,1016.43
2018-09-17T12:03:44.725Z,1016.44
2018-09-17T12:04:44.724Z,1016.41
2018-09-17T12:05:44.740Z,1016.43
2018-09-17T12:06:44.694Z,1016.48
2018-09-17T12:07:44.684Z,1016.46
2018-09-17T12:08:44.672Z,1016.49
2018-09-17T12:09:44.679Z,1016.46
2018-09-17T12:10:44.669Z,1016.42
2018-09-17T12:11:44.643Z,1016.44
2018-09-17T12:12:44.634Z,1016.43
2018-09-17T12:13:44.628Z,1016.38
2018-09-17T12:14:44.609Z,1016.36
2018-09-17T12:15:44.631Z,1016.38
2018-09-17T12:16:44.587Z,1016.41
2018-09-17T12:17:44.576Z,1016.36
2018-09-17T12:18:44.563Z,1016.34
2018-09-17T12:19:44.550Z,1016.35
2018-09-17T12:20:44.558Z,1016.34
2018-09-17T12:21:44.547Z,1016.34
2018-09-17T12:22:44.524Z,1016.30
2018-09-17T12:23:44.537Z,1016.25
2018-09-17T12:24:44.505Z,1016.30
2018-09-17T12:25:44.485Z,1016.28
2018-09-17T12:26:44.495Z,1016.26
2018-09-17T12:27:44.467Z,1016.21
2018-09-17T12:28:44.458Z,1016.21
2018-09-17T12:29:44.454Z,1016.20
2018-09-17T12:30:44.440Z,1016.19
2018-09-17T12:31:44.451Z,1016.18
2018-09-17T12:32:44.408Z,1016.15
2018-09-17T12:33:44.438Z,1016.11
2018-09-17T12:34:44.420Z,1016.15
2018-09-17T12:35:44.385Z,1016.09
2018-09-17T12:36:44.398Z,1016.13
2018-09-17T12:37:44.365Z,1016.15
2018-09-17T12:38:44.350Z,1016.12
2018-09-17T12:39:44.342Z,1016.13
2018-09-17T12:40:44.345Z,1016.11
2018-09-17T12:41:44.339Z,1016.11
2018-09-17T12:42:44.304Z,1016.12
2018-09-17T12:43:44.296Z,1016.13
2018-09-17T12:44:44.299Z,1016.08
2018-09-17T12:45:44.280Z,1016.06
2018-09-17T12:46:44.277Z,1016.06